createdAt,value
2018-08-12T00:00:24.520Z,1016.18
2018-08-12T00:01:24.474Z,1016.17
2018-08-12T00:02:24.464Z,1016.18
2018-08-12T00:03:24.464Z,1016.14
2018-08-12T00:04:24.462Z,1016.19
2018-08-12T00:05:24.458Z,1016.14
2018-08-12T00:06:24.466Z,1016.19
2018-08-12T00:07:24.458Z,1016.15
2018-08-12T00:08:24.457Z,1016.14
2018-08-12T00:09:24.466Z,1016.15
2018-08-12T00:10:24.469Z,1016.11
2018-08-12T00:11:24.453Z,1016.12
2018-08-12T00:12:24.451Z,1016.11
2018-08-12T00:13:24.451Z,1016.13
2018-08-12T00:14:24.451Z,1016.12
2018-08-12T00:15:24.455Z,1016.11
2018-08-12T00:16:24.448Z,1016.12
2018-08-12T00:17:24.448Z,1016.14
2018-08-12T00:18:24.446Z,1016.14
2018-08-12T00:19:24.447Z,1016.17
2018-08-12T00:20:24.441Z,1016.20
2018-08-12T00:21:24.443Z,1016.18
2018-08-12T00:22:24.442Z,1016.18
2018-08-12T00:23:24.441Z,1016.18
2018-08-12T00:24:24.440Z,1016.18
2018-08-12T00:25:24.438Z,1016.17
2018-08-12T00:26:24.437Z,1016.14
2018-08-12T00:27:24.440Z,1016.17
2018-08-12T00:28:24.434Z,1016.15
2018-08-12T00:29:24.434Z,1016.17
2018-08-12T00:30:24.435Z,1016.18
2018-08-12T00:31:24.433Z,1016.16
2018-08-12T00:32:24.435Z,1016.19
2018-08-12T00:33:24.435Z,1016.15
2018-08-12T00:34:24.431Z,1016.15
2018-08-12T00:35:24.429Z,1016.16
2018-08-12T00:36:24.425Z,1016.20
2018-08-12T00:37:24.425Z,1016.21
2018-08-12T00:38:24.426Z,1016.20
2018-08-12T00:39:24.424Z,1016.24
2018-08-12T00:40:24.420Z,1016.25
2018-08-12T00:41:24.422Z,1016.24
2018-08-12T00:42:24.419Z,1016.26
2018-08-12T00:43:24.420Z,1016.26
2018-08-12T00:44:24.418Z,1016.25
2018-08-12T00:45:24.416Z,1016.26
2018-08-12T00:46:24.416Z,1016.22
2018-08-12T00:47:24.411Z,1016.21
2018-08-12T00:48:24.411Z,1016.21
2018-08-12T00:49:24.412Z,1016.20
2018-08-12T00:50:24.488Z,1016.19
2018-08-12T00:51:24.409Z,1016.16
2018-08-12T00:52:24.416Z,1016.16
2018-08-12T00:53:24.407Z,1016.15
2018-08-12T00:54:24.405Z,1016.11
2018-08-12T00:55:24.404Z,1016.14
2018-08-12T00:56:24.401Z,1016.13
2018-08-12T00:57:24.400Z,1016.13
2018-08-12T00:58:24.402Z,1016.14
2018-08-12T00:59:24.398Z,1016.12
2018-08-12T01:00:24.398Z,1016.09
2018-08-12T01:01:24.396Z,1016.10
2018-08-12T01:02:24.396Z,1016.10
2018-08-12T01:03:24.393Z,1016.07
2018-08-12T01:04:24.391Z,1016.09
2018-08-12T01:05:24.393Z,1016.11
2018-08-12T01:06:24.390Z,1016.11
2018-08-12T01:07:24.388Z,1016.11
2018-08-12T01:08:24.386Z,1016.09
2018-08-12T01:09:24.387Z,1016.12
2018-08-12T01:10:24.387Z,1016.08
2018-08-12T01:11:24.380Z,1016.08
2018-08-12T01:12:24.380Z,1016.09
2018-08-12T01:13:24.380Z,1016.09
2018-08-12T01:14:24.376Z,1016.08
2018-08-12T01:15:24.378Z,1016.12
2018-08-12T01:16:24.376Z,1016.08
2018-08-12T01:17:24.373Z,1016.08
2018-08-12T01:18:24.373Z,1016.08
2018-08-12T01:19:24.375Z,1016.06
2018-08-12T01:20:24.373Z,1016.09
2018-08-12T01:21:24.368Z,1016.05
2018-08-12T01:22:24.367Z,1016.05
2018-08-12T01:23:24.364Z,1016.08
2018-08-12T01:24:24.365Z,1016.07
2018-08-12T01:25:24.361Z,1016.04
2018-08-12T01:26:24.363Z,1016.05
2018-08-12T01:27:24.361Z,1016.02
2018-08-12T01:28:24.356Z,1016.05
2018-08-12T01:29:24.358Z,1016.07
2018-08-12T01:30:24.356Z,1016.07
2018-08-12T01:31:24.352Z,1016.04
2018-08-12T01:32:24.357Z,1016.06
2018-08-12T01:33:24.353Z,1016.08
2018-08-12T01:34:24.354Z,1016.07
2018-08-12T01:35:24.352Z,1016.05
2018-08-12T01:36:24.347Z,1016.05
2018-08-12T01:37:24.346Z,1016.04
2018-08-12T01:38:24.343Z,1015.99
2018-08-12T01:39:24.345Z,1016.02
2018-08-12T01:40:24.340Z,1016.00
2018-08-12T01:41:24.340Z,1016.04
2018-08-12T01:42:24.338Z,1016.01
2018-08-12T01:43:24.337Z,1015.98
2018-08-12T01:44:24.335Z,1015.97
2018-08-12T01:45:24.335Z,1015.97
2018-08-12T01:46:24.332Z,1015.94
2018-08-12T01:47:24.332Z,1015.94
2018-08-12T01:48:24.334Z,1015.92
2018-08-12T01:49:24.326Z,1015.92
2018-08-12T01:50:24.328Z,1015.92
2018-08-12T01:51:24.328Z,1015.90
2018-08-12T01:52:24.327Z,1015.92
2018-08-12T01:53:24.322Z,1015.90
2018-08-12T01:54:24.318Z,1015.91
2018-08-12T01:55:24.320Z,1015.88
2018-08-12T01:56:24.314Z,1015.88
2018-08-12T01:57:24.317Z,1015.88
2018-08-12T01:58:24.315Z,1015.86
2018-08-12T01:59:24.312Z,1015.89
2018-08-12T02:00:24.310Z,1015.90
2018-08-12T02:01:24.308Z,1015.85
2018-08-12T02:02:24.308Z,1015.87
2018-08-12T02:03:24.306Z,1015.89
2018-08-12T02:04:24.304Z,1015.88
2018-08-12T02:05:24.306Z,1015.90
2018-08-12T02:06:24.301Z,1015.91
2018-08-12T02:07:24.300Z,1015.89
2018-08-12T02:08:24.305Z,1015.84
2018-08-12T02:09:24.295Z,1015.85
2018-08-12T02:10:24.296Z,1015.84
2018-08-12T02:11:24.292Z,1015.85
2018-08-12T02:12:24.293Z,1015.84
2018-08-12T02:13:24.288Z,1015.88
2018-08-12T02:14:24.286Z,1015.82
2018-08-12T02:15:24.286Z,1015.85
2018-08-12T02:16:24.284Z,1015.83
2018-08-12T02:17:24.282Z,1015.82
2018-08-12T02:18:24.288Z,1015.84
2018-08-12T02:19:24.279Z,1015.88
2018-08-12T02:20:24.278Z,1015.85
2018-08-12T02:21:24.275Z,1015.83
2018-08-12T02:22:24.273Z,1015.83
2018-08-12T02:23:24.272Z,1015.86
2018-08-12T02:24:24.270Z,1015.85
2018-08-12T02:25:24.268Z,1015.82
2018-08-12T02:26:24.266Z,1015.80
2018-08-12T02:27:24.265Z,1015.84
2018-08-12T02:28:24.263Z,1015.81
2018-08-12T02:29:24.260Z,1015.87
2018-08-12T02:30:24.260Z,1015.83
2018-08-12T02:31:24.258Z,1015.86
2018-08-12T02:32:24.254Z,1015.81
2018-08-12T02:33:24.252Z,1015.82
2018-08-12T02:34:24.252Z,1015.82
2018-08-12T02:35:24.252Z,1015.78
2018-08-12T02:36:24.248Z,1015.80
2018-08-12T02:37:24.249Z,1015.79
2018-08-12T02:38:24.244Z,1015.77
2018-08-12T02:39:24.244Z,1015.76
2018-08-12T02:40:24.242Z,1015.76
2018-08-12T02:41:24.242Z,1015.73
2018-08-12T02:42:24.237Z,1015.73
2018-08-12T02:43:24.244Z,1015.75
2018-08-12T02:44:24.238Z,1015.72
2018-08-12T02:45:24.235Z,1015.74
2018-08-12T02:46:24.234Z,1015.76
2018-08-12T02:47:24.228Z,1015.71
2018-08-12T02:48:24.227Z,1015.72
2018-08-12T02:49:24.228Z,1015.79
2018-08-12T02:50:24.222Z,1015.76
2018-08-12T02:51:24.219Z,1015.75
2018-08-12T02:52:24.236Z,1015.79
2018-08-12T02:53:24.216Z,1015.78
2018-08-12T02:54:24.215Z,1015.80
2018-08-12T02:55:24.212Z,1015.78
2018-08-12T02:56:24.215Z,1015.79
2018-08-12T02:57:24.211Z,1015.81
2018-08-12T02:58:24.208Z,1015.73
2018-08-12T02:59:24.207Z,1015.74
2018-08-12T03:00:24.204Z,1015.71
2018-08-12T03:01:24.210Z,1015.71
2018-08-12T03:02:24.200Z,1015.69
2018-08-12T03:03:24.203Z,1015.70
2018-08-12T03:04:24.195Z,1015.65
2018-08-12T03:05:24.198Z,1015.70
2018-08-12T03:06:24.193Z,1015.70
2018-08-12T03:07:24.188Z,1015.74
2018-08-12T03:08:24.186Z,1015.74
2018-08-12T03:09:24.185Z,1015.78
2018-08-12T03:10:24.188Z,1015.80
2018-08-12T03:11:24.184Z,1015.77
2018-08-12T03:12:24.181Z,1015.81
2018-08-12T03:13:24.179Z,1015.82
2018-08-12T03:14:24.175Z,1015.82
2018-08-12T03:15:24.181Z,1015.79
2018-08-12T03:16:24.172Z,1015.78
2018-08-12T03:17:24.169Z,1015.79
2018-08-12T03:18:24.169Z,1015.78
2018-08-12T03:19:24.167Z,1015.79
2018-08-12T03:20:24.163Z,1015.80
2018-08-12T03:21:24.164Z,1015.80
2018-08-12T03:22:24.221Z,1015.78
2018-08-12T03:23:24.158Z,1015.74
2018-08-12T03:24:24.159Z,1015.74
2018-08-12T03:25:24.153Z,1015.72
2018-08-12T03:26:24.154Z,1015.72
2018-08-12T03:27:24.150Z,1015.74
2018-08-12T03:28:24.153Z,1015.76
2018-08-12T03:29:24.146Z,1015.77
2018-08-12T03:30:24.219Z,1015.79
2018-08-12T03:31:24.142Z,1015.80
2018-08-12T03:32:24.140Z,1015.79
2018-08-12T03:33:24.136Z,1015.79
2018-08-12T03:34:24.137Z,1015.81
2018-08-12T03:35:24.135Z,1015.75
2018-08-12T03:36:24.131Z,1015.76
2018-08-12T03:37:24.131Z,1015.75
2018-08-12T03:38:24.129Z,1015.78
2018-08-12T03:39:24.127Z,1015.77
2018-08-12T03:40:24.128Z,1015.78
2018-08-12T03:41:24.122Z,1015.77
2018-08-12T03:42:24.120Z,1015.77
2018-08-12T03:43:24.122Z,1015.77
2018-08-12T03:44:24.117Z,1015.78
2018-08-12T03:45:24.115Z,1015.79
2018-08-12T03:46:24.114Z,1015.78
2018-08-12T03:47:24.113Z,1015.80
2018-08-12T03:48:24.109Z,1015.78
2018-08-12T03:49:24.112Z,1015.82
2018-08-12T03:50:24.105Z,1015.81
2018-08-12T03:51:24.107Z,1015.84
2018-08-12T03:52:24.101Z,1015.85
2018-08-12T03:53:24.100Z,1015.86
2018-08-12T03:54:24.099Z,1015.88
2018-08-12T03:55:24.096Z,1015.90
2018-08-12T03:56:24.096Z,1015.87
2018-08-12T03:57:24.093Z,1015.86
2018-08-12T03:58:24.089Z,1015.87
2018-08-12T03:59:24.095Z,1015.89
2018-08-12T04:00:24.087Z,1015.86
2018-08-12T04:01:24.086Z,1015.82
2018-08-12T04:02:24.162Z,1015.82
2018-08-12T04:03:24.083Z,1015.86
2018-08-12T04:04:24.082Z,1015.83
2018-08-12T04:05:24.079Z,1015.84
2018-08-12T04:06:24.076Z,1015.87
2018-08-12T04:07:24.074Z,1015.92
2018-08-12T04:08:24.074Z,1015.91
2018-08-12T04:09:24.071Z,1015.91
2018-08-12T04:10:24.071Z,1015.98
2018-08-12T04:11:24.068Z,1015.96
2018-08-12T04:12:24.068Z,1016.00
2018-08-12T04:13:24.067Z,1016.00
2018-08-12T04:14:24.064Z,1016.05
2018-08-12T04:15:24.064Z,1015.99
2018-08-12T04:16:24.060Z,1016.03
2018-08-12T04:17:24.058Z,1016.02
2018-08-12T04:18:24.058Z,1016.03
2018-08-12T04:19:24.058Z,1016.03
2018-08-12T04:20:24.055Z,1016.05
2018-08-12T04:21:24.052Z,1016.07
2018-08-12T04:22:24.052Z,1016.05
2018-08-12T04:23:24.049Z,1016.06
2018-08-12T04:24:24.045Z,1016.03
2018-08-12T04:25:24.044Z,1016.06
2018-08-12T04:26:24.045Z,1016.08
2018-08-12T04:27:24.043Z,1016.01
2018-08-12T04:28:24.044Z,1016.02
2018-08-12T04:29:24.040Z,1016.02
2018-08-12T04:30:24.038Z,1016.05
2018-08-12T04:31:24.037Z,1016.03
2018-08-12T04:32:24.035Z,1016.05
2018-08-12T04:33:24.033Z,1016.03
2018-08-12T04:34:24.032Z,1016.04
2018-08-12T04:35:24.031Z,1016.05
2018-08-12T04:36:24.029Z,1016.08
2018-08-12T04:37:24.028Z,1016.07
2018-08-12T04:38:24.030Z,1016.11
2018-08-12T04:39:24.031Z,1016.10
2018-08-12T04:40:24.025Z,1016.07
2018-08-12T04:41:24.022Z,1016.07
2018-08-12T04:42:24.022Z,1015.98
2018-08-12T04:43:24.021Z,1016.01
2018-08-12T04:44:24.018Z,1016.01
2018-08-12T04:45:24.021Z,1016.01
2018-08-12T04:46:24.021Z,1016.04
2018-08-12T04:47:24.020Z,1016.04
2018-08-12T04:48:24.014Z,1016.01
2018-08-12T04:49:24.014Z,1016.01
2018-08-12T04:50:24.013Z,1016.03
2018-08-12T04:51:24.018Z,1016.06
2018-08-12T04:52:24.012Z,1016.12
2018-08-12T04:53:24.011Z,1016.15
2018-08-12T04:54:24.012Z,1016.15
2018-08-12T04:55:24.007Z,1016.13
2018-08-12T04:56:24.007Z,1016.15
2018-08-12T04:57:24.008Z,1016.16
2018-08-12T04:58:24.006Z,1016.19
2018-08-12T04:59:24.005Z,1016.18
2018-08-12T05:00:24.005Z,1016.19
2018-08-12T05:01:24.004Z,1016.16
2018-08-12T05:02:24.004Z,1016.22
2018-08-12T05:03:24.004Z,1016.25
2018-08-12T05:04:24.004Z,1016.22
2018-08-12T05:05:24.003Z,1016.17
2018-08-12T05:06:24.004Z,1016.13
2018-08-12T05:07:24.002Z,1016.12
2018-08-12T05:08:24.001Z,1016.11
2018-08-12T05:09:24.004Z,1016.07
2018-08-12T05:10:24.003Z,1016.06
2018-08-12T05:11:24.003Z,1016.03
2018-08-12T05:12:24.004Z,1016.08
2018-08-12T05:13:24.005Z,1016.05
2018-08-12T05:14:24.008Z,1016.05
2018-08-12T05:15:24.007Z,1016.04
2018-08-12T05:16:24.007Z,1016.03
2018-08-12T05:17:24.007Z,1016.00
2018-08-12T05:18:24.009Z,1016.01
2018-08-12T05:19:24.010Z,1015.98
2018-08-12T05:20:24.008Z,1015.99
2018-08-12T05:21:24.013Z,1016.03
2018-08-12T05:22:24.014Z,1016.01
2018-08-12T05:23:24.017Z,1015.98
2018-08-12T05:24:24.018Z,1015.97
2018-08-12T05:25:24.015Z,1015.96
2018-08-12T05:26:24.022Z,1015.94
2018-08-12T05:27:24.025Z,1015.95
2018-08-12T05:28:24.021Z,1015.93
2018-08-12T05:29:24.023Z,1015.92
2018-08-12T05:30:24.026Z,1015.93
2018-08-12T05:31:24.029Z,1015.98
2018-08-12T05:32:24.031Z,1015.95
2018-08-12T05:33:24.032Z,1015.92
2018-08-12T05:34:24.033Z,1015.92
2018-08-12T05:35:24.035Z,1015.88
2018-08-12T05:36:24.039Z,1015.84
2018-08-12T05:37:24.043Z,1015.86
2018-08-12T05:38:24.041Z,1015.86
2018-08-12T05:39:24.045Z,1015.81
2018-08-12T05:40:24.046Z,1015.83
2018-08-12T05:41:24.050Z,1015.80
2018-08-12T05:42:24.053Z,1015.82
2018-08-12T05:43:24.056Z,1015.76
2018-08-12T05:44:24.060Z,1015.76
2018-08-12T05:45:24.059Z,1015.74
2018-08-12T05:46:24.066Z,1015.75
2018-08-12T05:47:24.066Z,1015.74
2018-08-12T05:48:24.070Z,1015.71
2018-08-12T05:49:24.072Z,1015.72
2018-08-12T05:50:24.075Z,1015.69
2018-08-12T05:51:24.085Z,1015.72
2018-08-12T05:52:24.079Z,1015.73
2018-08-12T05:53:24.088Z,1015.71
2018-08-12T05:54:24.090Z,1015.69
2018-08-12T05:55:24.091Z,1015.72
2018-08-12T05:56:24.094Z,1015.71
2018-08-12T05:57:24.096Z,1015.74
2018-08-12T05:58:24.105Z,1015.71
2018-08-12T05:59:24.105Z,1015.67
2018-08-12T06:00:24.109Z,1015.67
2018-08-12T06:01:24.113Z,1015.65
2018-08-12T06:02:24.115Z,1015.64
2018-08-12T06:03:24.121Z,1015.63
2018-08-12T06:04:24.122Z,1015.61
2018-08-12T06:05:24.128Z,1015.62
2018-08-12T06:06:24.131Z,1015.59
2018-08-12T06:07:24.142Z,1015.56
2018-08-12T06:08:24.140Z,1015.55
2018-08-12T06:09:24.145Z,1015.53
2018-08-12T06:10:24.148Z,1015.53
2018-08-12T06:11:24.153Z,1015.45
2018-08-12T06:12:24.160Z,1015.48
2018-08-12T06:13:24.161Z,1015.49
2018-08-12T06:14:24.167Z,1015.49
2018-08-12T06:15:24.171Z,1015.47
2018-08-12T06:16:24.175Z,1015.51
2018-08-12T06:17:24.232Z,1015.48
2018-08-12T06:18:24.187Z,1015.51
2018-08-12T06:19:24.193Z,1015.49
2018-08-12T06:20:24.195Z,1015.46
2018-08-12T06:21:24.204Z,1015.47
2018-08-12T06:22:24.205Z,1015.48
2018-08-12T06:23:24.211Z,1015.49
2018-08-12T06:24:24.216Z,1015.46
2018-08-12T06:25:24.220Z,1015.43
2018-08-12T06:26:24.226Z,1015.42
2018-08-12T06:27:24.233Z,1015.42
2018-08-12T06:28:24.237Z,1015.40
2018-08-12T06:29:24.243Z,1015.39
2018-08-12T06:30:24.248Z,1015.39
2018-08-12T06:31:24.276Z,1015.38
2018-08-12T06:32:24.292Z,1015.38
2018-08-12T06:33:24.264Z,1015.42
2018-08-12T06:34:24.306Z,1015.41
2018-08-12T06:35:24.276Z,1015.38
2018-08-12T06:36:24.281Z,1015.35
2018-08-12T06:37:24.287Z,1015.33
2018-08-12T06:38:24.293Z,1015.37
2018-08-12T06:39:24.297Z,1015.31
2018-08-12T06:40:24.304Z,1015.31
2018-08-12T06:41:24.312Z,1015.30
2018-08-12T06:42:24.314Z,1015.31
2018-08-12T06:43:24.319Z,1015.30
2018-08-12T06:44:24.325Z,1015.24
2018-08-12T06:45:24.335Z,1015.28
2018-08-12T06:46:24.385Z,1015.28
2018-08-12T06:47:24.344Z,1015.29
2018-08-12T06:48:24.350Z,1015.32
2018-08-12T06:49:24.367Z,1015.37
2018-08-12T06:50:24.362Z,1015.31
2018-08-12T06:51:24.369Z,1015.34
2018-08-12T06:52:24.375Z,1015.37
2018-08-12T06:53:24.380Z,1015.36
2018-08-12T06:54:24.387Z,1015.38
2018-08-12T06:55:24.397Z,1015.40
2018-08-12T06:56:24.398Z,1015.36
2018-08-12T06:57:24.406Z,1015.31
2018-08-12T06:58:24.411Z,1015.33
2018-08-12T06:59:24.425Z,1015.31
2018-08-12T07:00:24.462Z,1015.31
2018-08-12T07:01:24.429Z,1015.30
2018-08-12T07:02:24.436Z,1015.33
2018-08-12T07:03:24.446Z,1015.30
2018-08-12T07:04:24.448Z,1015.29
2018-08-12T07:05:24.455Z,1015.27
2018-08-12T07:06:24.462Z,1015.29
2018-08-12T07:07:24.469Z,1015.32
2018-08-12T07:08:24.476Z,1015.33
2018-08-12T07:09:24.480Z,1015.31
2018-08-12T07:10:24.487Z,1015.31
2018-08-12T07:11:24.492Z,1015.33
2018-08-12T07:12:24.499Z,1015.31
2018-08-12T07:13:24.505Z,1015.27
2018-08-12T07:14:24.636Z,1015.30
2018-08-12T07:15:24.520Z,1015.30
2018-08-12T07:16:24.525Z,1015.29
2018-08-12T07:17:24.537Z,1015.29
2018-08-12T07:18:24.542Z,1015.27
2018-08-12T07:19:24.549Z,1015.26
2018-08-12T07:20:24.553Z,1015.29
2018-08-12T07:21:24.569Z,1015.25
2018-08-12T07:22:24.568Z,1015.28
2018-08-12T07:23:24.575Z,1015.29
2018-08-12T07:24:24.582Z,1015.25
2018-08-12T07:25:24.588Z,1015.26
2018-08-12T07:26:24.597Z,1015.22
2018-08-12T07:27:24.604Z,1015.24
2018-08-12T07:28:24.611Z,1015.25
2018-08-12T07:29:24.619Z,1015.22
2018-08-12T07:30:24.626Z,1015.22
2018-08-12T07:31:24.635Z,1015.22
2018-08-12T07:32:24.641Z,1015.21
2018-08-12T07:33:24.650Z,1015.20
2018-08-12T07:34:24.656Z,1015.23
2018-08-12T07:35:24.672Z,1015.18
2018-08-12T07:36:24.676Z,1015.18
2018-08-12T07:37:24.684Z,1015.19
2018-08-12T07:38:24.686Z,1015.16
2018-08-12T07:39:24.694Z,1015.24
2018-08-12T07:40:24.699Z,1015.25
2018-08-12T07:41:24.710Z,1015.25
2018-08-12T07:42:24.720Z,1015.21
2018-08-12T07:43:24.726Z,1015.23
2018-08-12T07:44:24.733Z,1015.21
2018-08-12T07:45:24.734Z,1015.20
2018-08-12T07:46:24.746Z,1015.18
2018-08-12T07:47:24.760Z,1015.18
2018-08-12T07:48:24.764Z,1015.12
2018-08-12T07:49:24.771Z,1015.16
2018-08-12T07:50:24.780Z,1015.13
2018-08-12T07:51:24.788Z,1015.14
2018-08-12T07:52:24.797Z,1015.10
2018-08-12T07:53:24.807Z,1015.13
2018-08-12T07:54:24.816Z,1015.14
2018-08-12T07:55:24.829Z,1015.12
2018-08-12T07:56:24.827Z,1015.14
2018-08-12T07:57:24.836Z,1015.12
2018-08-12T07:58:24.845Z,1015.09
2018-08-12T07:59:24.853Z,1015.09
2018-08-12T08:00:24.861Z,1015.08
2018-08-12T08:01:24.869Z,1015.09
2018-08-12T08:02:24.878Z,1015.06
2018-08-12T08:03:24.887Z,1015.11
2018-08-12T08:04:24.895Z,1015.12
2018-08-12T08:05:24.905Z,1015.13
2018-08-12T08:06:24.981Z,1015.13
2018-08-12T08:07:24.921Z,1015.12
2018-08-12T08:08:24.932Z,1015.13
2018-08-12T08:09:24.943Z,1015.11
2018-08-12T08:10:24.947Z,1015.11
2018-08-12T08:11:24.956Z,1015.09
2018-08-12T08:12:25.006Z,1015.13
2018-08-12T08:13:24.973Z,1015.16
2018-08-12T08:14:24.987Z,1015.13
2018-08-12T08:15:24.992Z,1015.18
2018-08-12T08:16:25.001Z,1015.16
2018-08-12T08:17:25.011Z,1015.15
2018-08-12T08:18:25.020Z,1015.14
2018-08-12T08:19:25.034Z,1015.16
2018-08-12T08:20:25.064Z,1015.18
2018-08-12T08:21:25.049Z,1015.13
2018-08-12T08:22:25.061Z,1015.17
2018-08-12T08:23:25.068Z,1015.15
2018-08-12T08:24:25.107Z,1015.16
2018-08-12T08:25:25.125Z,1015.17
2018-08-12T08:26:25.095Z,1015.18
2018-08-12T08:27:25.103Z,1015.18
2018-08-12T08:28:25.124Z,1015.18
2018-08-12T08:29:25.134Z,1015.17
2018-08-12T08:30:25.136Z,1015.16
2018-08-12T08:31:25.157Z,1015.19
2018-08-12T08:32:25.156Z,1015.17
2018-08-12T08:33:25.166Z,1015.16
2018-08-12T08:34:25.172Z,1015.20
2018-08-12T08:35:25.195Z,1015.16
2018-08-12T08:36:25.194Z,1015.12
2018-08-12T08:37:25.205Z,1015.07
2018-08-12T08:38:25.213Z,1015.10
2018-08-12T08:39:25.225Z,1015.06
2018-08-12T08:40:25.237Z,1015.10
2018-08-12T08:41:25.245Z,1015.07
2018-08-12T08:42:25.252Z,1015.07
2018-08-12T08:43:25.265Z,1015.12
2018-08-12T08:44:25.282Z,1015.12
2018-08-12T08:45:25.286Z,1015.12
2018-08-12T08:46:25.291Z,1015.17
2018-08-12T08:47:25.305Z,1015.16
2018-08-12T08:48:25.314Z,1015.14
2018-08-12T08:49:25.337Z,1014.91
2018-08-12T08:50:25.333Z,1014.84
2018-08-12T08:51:25.344Z,1014.87
2018-08-12T08:52:25.353Z,1014.82
2018-08-12T08:53:25.363Z,1014.87
2018-08-12T08:54:25.383Z,1014.88
2018-08-12T08:55:25.380Z,1014.84
2018-08-12T08:56:25.391Z,1014.85
2018-08-12T08:57:25.403Z,1014.92
2018-08-12T08:58:25.405Z,1015.01
2018-08-12T08:59:25.418Z,1015.11
2018-08-12T09:00:25.424Z,1015.10
2018-08-12T09:01:25.545Z,1015.00
2018-08-12T09:02:25.439Z,1014.89
2018-08-12T09:03:25.447Z,1014.86
2018-08-12T09:04:25.451Z,1014.79
2018-08-12T09:05:25.462Z,1014.74
2018-08-12T09:06:25.470Z,1014.73
2018-08-12T09:07:25.479Z,1014.80
2018-08-12T09:08:25.910Z,1014.82
2018-08-12T09:09:25.493Z,1014.81
2018-08-12T09:10:25.499Z,1014.78
2018-08-12T09:11:25.506Z,1014.77
2018-08-12T09:12:25.513Z,1014.78
2018-08-12T09:13:25.519Z,1014.76
2018-08-12T09:14:25.528Z,1014.72
2018-08-12T09:15:25.532Z,1014.70
2018-08-12T09:16:25.552Z,1014.69
2018-08-12T09:17:25.545Z,1014.69
2018-08-12T09:18:25.549Z,1014.61
2018-08-12T09:19:25.561Z,1014.61
2018-08-12T09:20:25.562Z,1014.56
2018-08-12T09:21:25.568Z,1014.59
2018-08-12T09:22:25.579Z,1014.66
2018-08-12T09:23:25.580Z,1014.62
2018-08-12T09:24:25.588Z,1014.58
2018-08-12T09:25:25.591Z,1014.59
2018-08-12T09:26:25.596Z,1014.56
2018-08-12T09:27:25.603Z,1014.51
2018-08-12T09:28:25.609Z,1014.50
2018-08-12T09:29:25.645Z,1014.50
2018-08-12T09:30:25.623Z,1014.48
2018-08-12T09:31:25.628Z,1014.48
2018-08-12T09:32:25.632Z,1014.45
2018-08-12T09:33:25.634Z,1014.48
2018-08-12T09:34:25.639Z,1014.42
2018-08-12T09:35:25.644Z,1014.46
2018-08-12T09:36:25.650Z,1014.47
2018-08-12T09:37:25.655Z,1014.46
2018-08-12T09:38:25.663Z,1014.41
2018-08-12T09:39:25.690Z,1014.44
2018-08-12T09:40:25.670Z,1014.40
2018-08-12T09:41:25.676Z,1014.47
2018-08-12T09:42:25.680Z,1014.40
2018-08-12T09:43:25.686Z,1014.45
2018-08-12T09:44:25.689Z,1014.42
2018-08-12T09:45:25.693Z,1014.44
2018-08-12T09:46:25.698Z,1014.37
2018-08-12T09:47:25.705Z,1014.38
2018-08-12T09:48:25.707Z,1014.37
2018-08-12T09:49:25.714Z,1014.33
2018-08-12T09:50:25.716Z,1014.32
2018-08-12T09:51:25.780Z,1014.29
2018-08-12T09:52:25.724Z,1014.26
2018-08-12T09:53:25.730Z,1014.24
2018-08-12T09:54:25.737Z,1014.29
2018-08-12T09:55:25.742Z,1014.25
2018-08-12T09:56:25.748Z,1014.22
2018-08-12T09:57:25.749Z,1014.22
2018-08-12T09:58:25.811Z,1014.12
2018-08-12T09:59:25.764Z,1014.13
2018-08-12T10:00:25.851Z,1014.18
2018-08-12T10:01:25.767Z,1014.17
2018-08-12T10:02:25.771Z,1014.15
2018-08-12T10:03:25.774Z,1014.13
2018-08-12T10:04:25.782Z,1014.11
2018-08-12T10:05:25.783Z,1014.09
2018-08-12T10:06:25.787Z,1014.14
2018-08-12T10:07:25.805Z,1014.10
2018-08-12T10:08:25.799Z,1014.07
2018-08-12T10:09:25.801Z,1014.01
2018-08-12T10:10:25.805Z,1013.97
2018-08-12T10:11:25.809Z,1013.97
2018-08-12T10:12:25.815Z,1014.00
2018-08-12T10:13:25.817Z,1013.96
2018-08-12T10:14:25.823Z,1013.98
2018-08-12T10:15:25.873Z,1013.95
2018-08-12T10:16:25.832Z,1013.94
2018-08-12T10:17:25.834Z,1013.90
2018-08-12T10:18:25.839Z,1013.91
2018-08-12T10:19:25.841Z,1013.88
2018-08-12T10:20:25.847Z,1013.83
2018-08-12T10:21:25.857Z,1013.84
2018-08-12T10:22:25.857Z,1013.85
2018-08-12T10:23:25.864Z,1013.85
2018-08-12T10:24:25.864Z,1013.79
2018-08-12T10:25:25.873Z,1013.76
2018-08-12T10:26:25.873Z,1013.74
2018-08-12T10:27:25.876Z,1013.78
2018-08-12T10:28:25.881Z,1013.77
2018-08-12T10:29:25.888Z,1013.79
2018-08-12T10:30:25.890Z,1013.76
2018-08-12T10:31:25.892Z,1013.74
2018-08-12T10:32:25.896Z,1013.71
2018-08-12T10:33:25.901Z,1013.68
2018-08-12T10:34:25.910Z,1013.69
2018-08-12T10:35:25.910Z,1013.66
2018-08-12T10:36:25.918Z,1013.65
2018-08-12T10:37:25.919Z,1013.60
2018-08-12T10:38:25.923Z,1013.57
2018-08-12T10:39:25.932Z,1013.56
2018-08-12T10:40:25.934Z,1013.55
2018-08-12T10:41:25.939Z,1013.59
2018-08-12T10:42:25.942Z,1013.52
2018-08-12T10:43:25.945Z,1013.45
2018-08-12T10:44:25.998Z,1013.49
2018-08-12T10:45:25.956Z,1013.48
2018-08-12T10:46:25.958Z,1013.47
2018-08-12T10:47:25.963Z,1013.51
2018-08-12T10:48:25.969Z,1013.53
2018-08-12T10:49:25.971Z,1013.52
2018-08-12T10:50:25.977Z,1013.52
2018-08-12T10:51:25.983Z,1013.49
2018-08-12T10:52:25.986Z,1013.45
2018-08-12T10:53:25.985Z,1013.44
2018-08-12T10:54:25.993Z,1013.43
2018-08-12T10:55:25.997Z,1013.39
2018-08-12T10:56:26.000Z,1013.34
2018-08-12T10:57:26.002Z,1013.36
2018-08-12T10:58:26.011Z,1013.31
2018-08-12T10:59:26.106Z,1013.33
2018-08-12T11:00:26.019Z,1013.36
2018-08-12T11:01:26.024Z,1013.34
2018-08-12T11:02:26.027Z,1013.38
2018-08-12T11:03:26.032Z,1013.40
2018-08-12T11:04:26.037Z,1013.33
2018-08-12T11:05:26.048Z,1013.33
2018-08-12T11:06:26.044Z,1013.26
2018-08-12T11:07:26.093Z,1013.27
2018-08-12T11:08:26.057Z,1013.28
2018-08-12T11:09:26.059Z,1013.29
2018-08-12T11:10:26.063Z,1013.33
2018-08-12T11:11:26.069Z,1013.31
2018-08-12T11:12:26.106Z,1013.24
2018-08-12T11:13:26.077Z,1013.20
2018-08-12T11:14:26.079Z,1013.18
2018-08-12T11:15:26.085Z,1013.20
2018-08-12T11:16:26.087Z,1013.10
2018-08-12T11:17:26.094Z,1013.14
2018-08-12T11:18:26.098Z,1013.14
2018-08-12T11:19:26.101Z,1013.18
2018-08-12T11:20:26.173Z,1013.21
2018-08-12T11:21:26.110Z,1013.13
2018-08-12T11:22:26.119Z,1013.14
2018-08-12T11:23:26.119Z,1013.15
2018-08-12T11:24:26.123Z,1013.06
2018-08-12T11:25:26.131Z,1013.07
2018-08-12T11:26:26.131Z,1013.08
2018-08-12T11:27:26.138Z,1013.07
2018-08-12T11:28:26.151Z,1013.09
2018-08-12T11:29:26.149Z,1013.05
2018-08-12T11:30:26.150Z,1013.08
2018-08-12T11:31:26.155Z,1013.12
2018-08-12T11:32:26.158Z,1013.12
2018-08-12T11:33:26.162Z,1013.11
2018-08-12T11:34:26.167Z,1013.09
2018-08-12T11:35:26.171Z,1013.07
2018-08-12T11:36:26.175Z,1013.07
2018-08-12T11:37:26.181Z,1013.08
2018-08-12T11:38:26.185Z,1013.04
2018-08-12T11:39:26.192Z,1013.01
2018-08-12T11:40:26.192Z,1013.02
2018-08-12T11:41:26.199Z,1012.97
2018-08-12T11:42:26.203Z,1012.90
2018-08-12T11:43:26.209Z,1012.89
2018-08-12T11:44:26.210Z,1012.91
2018-08-12T11:45:26.227Z,1012.90
2018-08-12T11:46:26.222Z,1012.92
2018-08-12T11:47:26.271Z,1012.87
2018-08-12T11:48:26.229Z,1012.84
2018-08-12T11:49:26.238Z,1012.81
2018-08-12T11:50:26.238Z,1012.78
2018-08-12T11:51:26.243Z,1012.79
2018-08-12T11:52:26.247Z,1012.79
2018-08-12T11:53:26.251Z,1012.77
2018-08-12T11:54:26.254Z,1012.75
2018-08-12T11:55:26.259Z,1012.75
2018-08-12T11:56:26.264Z,1012.71
2018-08-12T11:57:26.271Z,1012.69
2018-08-12T11:58:26.273Z,1012.66
2018-08-12T11:59:26.280Z,1012.71
2018-08-12T12:00:26.285Z,1012.65
2018-08-12T12:01:26.285Z,1012.65
2018-08-12T12:02:26.291Z,1012.63
2018-08-12T12:03:26.294Z,1012.58
2018-08-12T12:04:26.359Z,1012.57
2018-08-12T12:05:26.308Z,1012.54